createdAt,value
2018-09-18T00:00:43.127Z,2.80
2018-09-18T00:01:43.084Z,3.00
2018-09-18T00:02:43.053Z,3.20
2018-09-18T00:03:43.019Z,3.00
2018-09-18T00:04:43.011Z,3.00
2018-09-18T00:05:42.935Z,3.00
2018-09-18T00:06:42.936Z,3.10
2018-09-18T00:07:42.903Z,3.00
2018-09-18T00:08:42.847Z,3.00
2018-09-18T00:09:42.953Z,2.80
2018-09-18T00:10:42.832Z,3.30
2018-09-18T00:11:42.763Z,3.10
2018-09-18T00:12:42.696Z,3.10
2018-09-18T00:13:42.650Z,2.80
2018-09-18T00:14:42.634Z,2.90
2018-09-18T00:15:42.578Z,3.00
2018-09-18T00:16:53.956Z,2.90
2018-09-18T00:17:42.499Z,3.00
2018-09-18T00:18:42.555Z,3.10
2018-09-18T00:19:42.447Z,3.00
2018-09-18T00:20:42.380Z,3.00
2018-09-18T00:21:42.341Z,3.00
2018-09-18T00:22:42.312Z,3.00
2018-09-18T00:23:42.259Z,3.20
2018-09-18T00:24:42.235Z,2.90
2018-09-18T00:25:42.220Z,3.10
2018-09-18T00:26:42.152Z,3.10
2018-09-18T00:27:42.154Z,2.80
2018-09-18T00:28:42.090Z,2.80
2018-09-18T00:29:42.077Z,3.30
2018-09-18T00:30:42.058Z,3.30
2018-09-18T00:31:41.979Z,3.00
2018-09-18T00:32:41.934Z,3.60
2018-09-18T00:33:41.920Z,3.10
2018-09-18T00:34:41.877Z,3.20
2018-09-18T00:35:41.865Z,3.20
2018-09-18T00:36:41.797Z,3.10
2018-09-18T00:37:41.752Z,2.90
2018-09-18T00:38:41.738Z,2.90
2018-09-18T00:39:41.674Z,3.40
2018-09-18T00:40:41.639Z,3.10
2018-09-18T00:41:41.621Z,3.20
2018-09-18T00:42:41.588Z,3.00
2018-09-18T00:43:41.528Z,3.00
2018-09-18T00:44:41.480Z,2.90
2018-09-18T00:45:41.454Z,3.30
2018-09-18T00:46:41.438Z,3.10
2018-09-18T00:47:41.401Z,3.10
2018-09-18T00:48:41.359Z,3.10
2018-09-18T00:49:41.313Z,3.00
2018-09-18T00:50:41.271Z,3.30
2018-09-18T00:51:41.252Z,3.20
2018-09-18T00:52:41.192Z,3.20
2018-09-18T00:53:41.152Z,3.30
2018-09-18T00:54:41.116Z,3.20
2018-09-18T00:55:41.077Z,3.00
2018-09-18T00:56:41.036Z,3.20
2018-09-18T00:57:41.032Z,3.20
2018-09-18T00:58:40.967Z,3.00
2018-09-18T00:59:40.931Z,3.10
2018-09-18T01:00:40.897Z,3.00
2018-09-18T01:01:40.871Z,3.00
2018-09-18T01:02:40.833Z,3.30
2018-09-18T01:03:40.773Z,3.20
2018-09-18T01:04:40.746Z,2.90
2018-09-18T01:05:51.420Z,3.10
2018-09-18T01:06:40.687Z,3.10
2018-09-18T01:07:40.670Z,3.00
2018-09-18T01:08:40.575Z,3.00
2018-09-18T01:09:40.555Z,2.90
2018-09-18T01:10:40.507Z,3.10
2018-09-18T01:11:40.486Z,2.80
2018-09-18T01:12:40.466Z,3.20
2018-09-18T01:13:40.403Z,3.10
2018-09-18T01:14:40.370Z,3.00
2018-09-18T01:15:40.348Z,3.20
2018-09-18T01:16:40.299Z,3.30
2018-09-18T01:17:40.245Z,3.00
2018-09-18T01:18:40.243Z,3.00
2018-09-18T01:19:40.175Z,3.20
2018-09-18T01:20:40.139Z,3.10
2018-09-18T01:21:40.115Z,3.30
2018-09-18T01:22:40.079Z,3.10
2018-09-18T01:23:40.090Z,3.30
2018-09-18T01:24:39.997Z,2.90
2018-09-18T01:25:39.948Z,3.20
2018-09-18T01:26:39.908Z,3.10
2018-09-18T01:27:39.890Z,3.00
2018-09-18T01:28:49.554Z,3.00
2018-09-18T01:29:39.830Z,3.20
2018-09-18T01:30:39.813Z,3.30
2018-09-18T01:31:39.709Z,2.90
2018-09-18T01:32:39.680Z,3.10
2018-09-18T01:33:39.657Z,3.30
2018-09-18T01:34:39.647Z,2.90
2018-09-18T01:35:39.589Z,3.10
2018-09-18T01:36:39.552Z,2.90
2018-09-18T01:37:39.502Z,3.20
2018-09-18T01:38:39.482Z,2.90
2018-09-18T01:39:39.458Z,3.00
2018-09-18T01:40:39.403Z,2.90
2018-09-18T01:41:39.377Z,3.10
2018-09-18T01:42:39.317Z,3.20
2018-09-18T01:43:39.290Z,3.10
2018-09-18T01:44:39.268Z,3.00
2018-09-18T01:45:39.211Z,2.70
2018-09-18T01:46:39.182Z,3.00
2018-09-18T01:47:39.185Z,2.90
2018-09-18T01:48:39.110Z,3.10
2018-09-18T01:49:39.125Z,3.00
2018-09-18T01:50:39.044Z,3.00
2018-09-18T01:51:38.983Z,2.90
2018-09-18T01:52:50.042Z,2.80
2018-09-18T01:53:38.910Z,3.00
2018-09-18T01:54:38.863Z,3.00
2018-09-18T01:55:38.855Z,3.00
2018-09-18T01:56:38.786Z,3.00
2018-09-18T01:57:38.763Z,3.00
2018-09-18T01:58:38.706Z,3.10
2018-09-18T01:59:38.694Z,3.00
2018-09-18T02:00:38.686Z,2.90
2018-09-18T02:01:38.589Z,2.80
2018-09-18T02:02:38.552Z,3.20
2018-09-18T02:03:38.518Z,3.00
2018-09-18T02:04:38.487Z,2.80
2018-09-18T02:05:38.463Z,2.90
2018-09-18T02:06:38.402Z,2.80
2018-09-18T02:07:38.360Z,2.80
2018-09-18T02:08:38.323Z,2.80
2018-09-18T02:09:38.305Z,2.80
2018-09-18T02:10:38.289Z,2.60
2018-09-18T02:11:38.219Z,3.00
2018-09-18T02:12:38.182Z,2.70
2018-09-18T02:13:38.159Z,2.80
2018-09-18T02:14:38.112Z,2.70
2018-09-18T02:15:38.116Z,2.70
2018-09-18T02:16:38.030Z,3.00
2018-09-18T02:17:38.017Z,2.80
2018-09-18T02:18:37.963Z,2.70
2018-09-18T02:19:37.942Z,2.70
2018-09-18T02:20:37.890Z,2.90
2018-09-18T02:21:37.917Z,2.80
2018-09-18T02:22:37.839Z,2.80
2018-09-18T02:23:37.783Z,2.90
2018-09-18T02:24:37.762Z,2.50
2018-09-18T02:25:37.722Z,2.70
2018-09-18T02:26:37.675Z,2.80
2018-09-18T02:27:37.635Z,3.00
2018-09-18T02:28:37.580Z,2.90
2018-09-18T02:29:37.572Z,2.80
2018-09-18T02:30:37.508Z,2.80
2018-09-18T02:31:37.478Z,2.90
2018-09-18T02:32:37.487Z,2.70
2018-09-18T02:33:37.415Z,2.70
2018-09-18T02:34:37.366Z,2.80
2018-09-18T02:35:37.327Z,2.90
2018-09-18T02:36:37.315Z,2.80
2018-09-18T02:37:37.251Z,2.70
2018-09-18T02:38:37.212Z,2.80
2018-09-18T02:39:37.202Z,2.60
2018-09-18T02:40:37.138Z,2.70
2018-09-18T02:41:37.096Z,2.80
2018-09-18T02:42:37.122Z,2.70
2018-09-18T02:43:37.032Z,2.70
2018-09-18T02:44:36.988Z,2.40
2018-09-18T02:45:36.947Z,3.10
2018-09-18T02:46:36.899Z,2.50
2018-09-18T02:47:36.908Z,2.60
2018-09-18T02:48:36.824Z,2.60
2018-09-18T02:49:36.817Z,2.70
2018-09-18T02:50:36.766Z,2.90
2018-09-18T02:51:36.719Z,2.80
2018-09-18T02:52:36.696Z,2.70
2018-09-18T02:53:36.646Z,2.70
2018-09-18T02:54:36.615Z,2.80
2018-09-18T02:55:36.564Z,2.80
2018-09-18T02:56:36.532Z,2.70
2018-09-18T02:57:36.512Z,2.80
2018-09-18T02:58:36.459Z,2.60
2018-09-18T02:59:36.414Z,2.70
2018-09-18T03:00:36.375Z,2.70
2018-09-18T03:01:36.372Z,2.60
2018-09-18T03:02:36.367Z,2.80
2018-09-18T03:03:36.277Z,3.10
2018-09-18T03:04:47.630Z,2.80
2018-09-18T03:05:36.206Z,2.80
2018-09-18T03:06:36.175Z,2.90
2018-09-18T03:07:36.115Z,3.00
2018-09-18T03:08:36.095Z,2.50
2018-09-18T03:09:36.035Z,2.90
2018-09-18T03:10:36.063Z,2.80
2018-09-18T03:11:36.054Z,2.70
2018-09-18T03:12:35.935Z,2.50
2018-09-18T03:13:36.026Z,2.90
2018-09-18T03:14:35.889Z,2.90
2018-09-18T03:15:35.822Z,2.80
2018-09-18T03:16:35.790Z,2.90
2018-09-18T03:17:35.735Z,3.00
2018-09-18T03:18:35.734Z,2.60
2018-09-18T03:19:35.672Z,2.70
2018-09-18T03:20:35.646Z,2.90
2018-09-18T03:21:35.594Z,2.60
2018-09-18T03:22:35.559Z,2.90
2018-09-18T03:23:35.572Z,2.60
2018-09-18T03:24:35.478Z,2.70
2018-09-18T03:25:35.440Z,2.60
2018-09-18T03:26:35.426Z,2.80
2018-09-18T03:27:47.772Z,2.60
2018-09-18T03:28:35.388Z,2.60
2018-09-18T03:29:35.323Z,2.90
2018-09-18T03:30:35.281Z,3.00
2018-09-18T03:31:35.224Z,2.70
2018-09-18T03:32:35.195Z,2.80
2018-09-18T03:33:35.134Z,2.60
2018-09-18T03:34:35.146Z,2.60
2018-09-18T03:35:35.132Z,2.80
2018-09-18T03:36:35.079Z,3.00
2018-09-18T03:37:34.982Z,2.50
2018-09-18T03:38:34.951Z,2.70
2018-09-18T03:39:34.936Z,2.50
2018-09-18T03:40:34.912Z,2.80
2018-09-18T03:41:34.841Z,2.70
2018-09-18T03:42:34.813Z,2.70
2018-09-18T03:43:34.762Z,2.80
2018-09-18T03:44:34.767Z,2.60
2018-09-18T03:45:34.686Z,2.70
2018-09-18T03:46:34.664Z,2.80
2018-09-18T03:47:34.622Z,3.00
2018-09-18T03:48:34.612Z,2.50
2018-09-18T03:49:34.592Z,2.70
2018-09-18T03:50:34.555Z,2.50
2018-09-18T03:51:45.852Z,2.70
2018-09-18T03:52:34.446Z,3.00
2018-09-18T03:53:34.403Z,2.70
2018-09-18T03:54:34.445Z,2.70
2018-09-18T03:55:34.323Z,2.50
2018-09-18T03:56:34.272Z,2.90
2018-09-18T03:57:34.238Z,2.60
2018-09-18T03:58:34.218Z,2.70
2018-09-18T03:59:34.201Z,3.00
2018-09-18T04:00:34.144Z,2.90
2018-09-18T04:01:34.105Z,2.80
2018-09-18T04:02:34.078Z,3.10
2018-09-18T04:03:34.010Z,2.70
2018-09-18T04:04:34.064Z,3.00
2018-09-18T04:05:33.953Z,2.60
2018-09-18T04:06:33.921Z,2.60
2018-09-18T04:07:33.876Z,2.90
2018-09-18T04:08:33.841Z,2.80
2018-09-18T04:09:33.812Z,2.70
2018-09-18T04:10:33.753Z,2.90
2018-09-18T04:11:33.739Z,2.40
2018-09-18T04:12:33.700Z,2.80
2018-09-18T04:13:33.667Z,2.80
2018-09-18T04:14:33.649Z,3.00
2018-09-18T04:15:33.570Z,2.60
2018-09-18T04:16:33.536Z,2.60
2018-09-18T04:17:33.496Z,2.50
2018-09-18T04:18:33.453Z,2.90
2018-09-18T04:19:33.431Z,3.10
2018-09-18T04:20:33.429Z,2.80
2018-09-18T04:21:33.348Z,2.70
2018-09-18T04:22:33.311Z,2.60
2018-09-18T04:23:33.274Z,2.80
2018-09-18T04:24:33.236Z,2.70
2018-09-18T04:25:33.230Z,2.60
2018-09-18T04:26:33.184Z,2.70
2018-09-18T04:27:33.115Z,2.60
2018-09-18T04:28:33.087Z,2.70
2018-09-18T04:29:33.064Z,2.70
2018-09-18T04:30:33.027Z,2.50
2018-09-18T04:31:32.975Z,2.80
2018-09-18T04:32:32.931Z,2.70
2018-09-18T04:33:32.898Z,2.60
2018-09-18T04:34:32.859Z,2.60
2018-09-18T04:35:32.885Z,2.70
2018-09-18T04:36:32.821Z,2.90
2018-09-18T04:37:43.258Z,2.80
2018-09-18T04:38:32.737Z,2.70
2018-09-18T04:39:32.675Z,2.80
2018-09-18T04:40:32.734Z,2.60
2018-09-18T04:41:32.625Z,2.50
2018-09-18T04:42:32.568Z,2.90
2018-09-18T04:43:32.579Z,2.50
2018-09-18T04:44:32.564Z,2.90
2018-09-18T04:45:32.468Z,2.80
2018-09-18T04:46:32.434Z,2.80
2018-09-18T04:47:32.369Z,2.90
2018-09-18T04:48:32.323Z,3.00
2018-09-18T04:49:32.297Z,2.50
2018-09-18T04:50:32.259Z,2.80
2018-09-18T04:51:32.250Z,2.60
2018-09-18T04:52:32.180Z,3.00
2018-09-18T04:53:32.192Z,2.60
2018-09-18T04:54:32.122Z,2.90
2018-09-18T04:55:32.097Z,2.60
2018-09-18T04:56:32.062Z,3.10
2018-09-18T04:57:32.012Z,2.70
2018-09-18T04:58:31.957Z,2.80
2018-09-18T04:59:31.948Z,2.50
2018-09-18T05:00:31.897Z,2.80
2018-09-18T05:01:31.876Z,2.50
2018-09-18T05:02:31.815Z,2.80
2018-09-18T05:03:42.463Z,2.80
2018-09-18T05:04:31.732Z,2.60
2018-09-18T05:05:31.696Z,2.80
2018-09-18T05:06:31.697Z,2.90
2018-09-18T05:07:31.608Z,2.80
2018-09-18T05:08:31.580Z,2.90
2018-09-18T05:09:31.533Z,2.50
2018-09-18T05:10:31.512Z,2.60
2018-09-18T05:11:31.534Z,2.80
2018-09-18T05:12:31.429Z,2.60
2018-09-18T05:13:31.397Z,2.80
2018-09-18T05:14:31.359Z,2.60
2018-09-18T05:15:31.329Z,2.90
2018-09-18T05:16:31.289Z,2.70
2018-09-18T05:17:31.282Z,2.70
2018-09-18T05:18:31.195Z,2.80
2018-09-18T05:19:31.189Z,2.90
2018-09-18T05:20:31.133Z,2.80
2018-09-18T05:21:31.098Z,2.80
2018-09-18T05:22:31.095Z,2.90
2018-09-18T05:23:31.018Z,2.80
2018-09-18T05:24:31.205Z,2.90
2018-09-18T05:25:31.008Z,2.80
2018-09-18T05:26:30.912Z,2.90
2018-09-18T05:27:30.881Z,2.80
2018-09-18T05:28:30.834Z,3.20
2018-09-18T05:29:30.805Z,3.00
2018-09-18T05:30:30.754Z,2.80
2018-09-18T05:31:30.719Z,2.80
2018-09-18T05:32:30.697Z,2.70
2018-09-18T05:33:30.657Z,3.10
2018-09-18T05:34:30.605Z,2.90
2018-09-18T05:35:30.576Z,3.00
2018-09-18T05:36:30.558Z,2.80
2018-09-18T05:37:30.525Z,3.00
2018-09-18T05:38:30.460Z,3.10
2018-09-18T05:39:30.412Z,2.90
2018-09-18T05:40:30.383Z,2.70
2018-09-18T05:41:30.373Z,2.90
2018-09-18T05:42:30.348Z,3.00
2018-09-18T05:43:30.270Z,2.70
2018-09-18T05:44:30.244Z,2.90
2018-09-18T05:45:30.196Z,2.80
2018-09-18T05:46:30.187Z,3.00
2018-09-18T05:47:30.129Z,2.80
2018-09-18T05:48:30.110Z,2.80
2018-09-18T05:49:30.045Z,3.20
2018-09-18T05:50:30.002Z,3.10
2018-09-18T05:51:29.974Z,2.80
2018-09-18T05:52:29.957Z,2.80
2018-09-18T05:53:29.918Z,3.10
2018-09-18T05:54:29.865Z,2.70
2018-09-18T05:55:29.824Z,3.00
2018-09-18T05:56:29.795Z,3.00
2018-09-18T05:57:29.764Z,2.80
2018-09-18T05:58:29.760Z,2.90
2018-09-18T05:59:29.678Z,3.00
2018-09-18T06:00:29.626Z,2.90
2018-09-18T06:01:29.619Z,2.90
2018-09-18T06:02:29.592Z,3.00
2018-09-18T06:03:29.568Z,3.00
2018-09-18T06:04:29.510Z,2.90
2018-09-18T06:05:29.467Z,3.10
2018-09-18T06:06:29.413Z,2.80
2018-09-18T06:07:29.369Z,3.10
2018-09-18T06:08:29.329Z,3.30
2018-09-18T06:09:29.357Z,2.90
2018-09-18T06:10:29.271Z,3.10
2018-09-18T06:11:29.221Z,2.80
2018-09-18T06:12:29.200Z,2.90
2018-09-18T06:13:29.186Z,2.70
2018-09-18T06:14:29.122Z,3.00
2018-09-18T06:15:29.094Z,2.70
2018-09-18T06:16:29.090Z,3.20
2018-09-18T06:17:29.019Z,3.10
2018-09-18T06:18:29.013Z,2.90
2018-09-18T06:19:28.946Z,2.90
2018-09-18T06:20:28.903Z,2.90
2018-09-18T06:21:28.858Z,3.10
2018-09-18T06:22:28.830Z,2.90
2018-09-18T06:23:28.846Z,2.90
2018-09-18T06:24:28.799Z,3.00
2018-09-18T06:25:28.711Z,3.10
2018-09-18T06:26:28.680Z,2.70
2018-09-18T06:27:28.657Z,2.80
2018-09-18T06:28:28.621Z,2.90
2018-09-18T06:29:28.613Z,2.80
2018-09-18T06:30:28.554Z,2.90
2018-09-18T06:31:28.501Z,2.90
2018-09-18T06:32:28.476Z,3.00
2018-09-18T06:33:28.463Z,2.80
2018-09-18T06:34:28.440Z,3.10
2018-09-18T06:35:28.398Z,2.90
2018-09-18T06:36:28.336Z,3.20
2018-09-18T06:37:28.314Z,3.00
2018-09-18T06:38:28.285Z,3.30
2018-09-18T06:39:28.236Z,2.90
2018-09-18T06:40:28.257Z,2.90
2018-09-18T06:41:28.177Z,2.80
2018-09-18T06:42:28.230Z,3.00
2018-09-18T06:43:28.097Z,2.90
2018-09-18T06:44:28.090Z,3.00
2018-09-18T06:45:28.051Z,3.00
2018-09-18T06:46:28.007Z,2.90
2018-09-18T06:47:27.984Z,3.10
2018-09-18T06:48:27.945Z,2.80
2018-09-18T06:49:27.924Z,3.10
2018-09-18T06:50:27.916Z,3.10
2018-09-18T06:51:27.850Z,2.90
2018-09-18T06:52:27.818Z,3.40
2018-09-18T06:53:27.761Z,2.90
2018-09-18T06:54:27.798Z,3.00
2018-09-18T06:55:27.757Z,2.70
2018-09-18T06:56:27.671Z,3.10
2018-09-18T06:57:27.656Z,2.90
2018-09-18T06:58:27.593Z,2.80
2018-09-18T06:59:27.565Z,3.00
2018-09-18T07:00:27.627Z,3.10
2018-09-18T07:01:27.554Z,2.90
2018-09-18T07:02:27.490Z,2.80
2018-09-18T07:03:27.448Z,2.90
2018-09-18T07:04:27.406Z,3.20
2018-09-18T07:05:27.401Z,2.90
2018-09-18T07:06:27.360Z,2.70
2018-09-18T07:07:27.331Z,2.90
2018-09-18T07:08:27.284Z,2.80
2018-09-18T07:09:27.259Z,3.00
2018-09-18T07:10:27.221Z,3.30
2018-09-18T07:11:27.211Z,3.10
2018-09-18T07:12:27.171Z,2.80
2018-09-18T07:13:27.124Z,2.90
2018-09-18T07:14:27.091Z,2.80
2018-09-18T07:15:27.057Z,2.90
2018-09-18T07:16:27.034Z,3.30
2018-09-18T07:17:27.009Z,3.00
2018-09-18T07:18:26.947Z,3.30
2018-09-18T07:19:26.910Z,2.60
2018-09-18T07:20:26.886Z,3.00
2018-09-18T07:21:26.885Z,2.90
2018-09-18T07:22:26.853Z,3.20
2018-09-18T07:23:26.781Z,2.80
2018-09-18T07:24:26.777Z,3.00
2018-09-18T07:25:26.716Z,2.80
2018-09-18T07:26:26.684Z,3.20
2018-09-18T07:27:26.729Z,3.00
2018-09-18T07:28:26.625Z,3.00
2018-09-18T07:29:26.607Z,2.90
2018-09-18T07:30:26.581Z,3.20
2018-09-18T07:31:26.526Z,3.10
2018-09-18T07:32:26.487Z,3.10
2018-09-18T07:33:26.481Z,3.20
2018-09-18T07:34:26.440Z,3.20
2018-09-18T07:35:26.390Z,3.20
2018-09-18T07:36:26.356Z,3.10
2018-09-18T07:37:26.381Z,2.90
2018-09-18T07:38:26.327Z,3.00
2018-09-18T07:39:26.272Z,3.00
2018-09-18T07:40:26.280Z,3.10
2018-09-18T07:41:26.251Z,2.70
2018-09-18T07:42:26.191Z,3.00
2018-09-18T07:43:26.160Z,3.20
2018-09-18T07:44:26.114Z,2.90
2018-09-18T07:45:26.080Z,3.10
2018-09-18T07:46:26.047Z,2.80
2018-09-18T07:47:35.819Z,3.00
2018-09-18T07:48:26.105Z,3.10
2018-09-18T07:49:25.942Z,2.90
2018-09-18T07:50:25.907Z,3.10
2018-09-18T07:51:25.921Z,3.10
2018-09-18T07:52:25.889Z,3.00
2018-09-18T07:53:25.959Z,2.90
2018-09-18T07:54:25.788Z,3.00
2018-09-18T07:55:25.794Z,3.00
2018-09-18T07:56:25.805Z,2.90
2018-09-18T07:57:25.735Z,3.20
2018-09-18T07:58:25.656Z,3.20
2018-09-18T07:59:25.633Z,2.80
2018-09-18T08:00:25.587Z,3.00
2018-09-18T08:01:25.573Z,3.10
2018-09-18T08:02:25.560Z,3.10
2018-09-18T08:03:25.535Z,3.00
2018-09-18T08:04:25.498Z,3.00
2018-09-18T08:05:25.431Z,2.90
2018-09-18T08:06:25.404Z,3.10
2018-09-18T08:07:25.401Z,3.20
2018-09-18T08:08:25.335Z,2.90
2018-09-18T08:09:25.334Z,3.00
2018-09-18T08:10:35.531Z,2.90
2018-09-18T08:11:25.252Z,3.10
2018-09-18T08:12:25.236Z,3.10
2018-09-18T08:13:25.196Z,3.00
2018-09-18T08:14:25.164Z,2.90
2018-09-18T08:15:25.118Z,3.00
2018-09-18T08:16:25.088Z,3.00
2018-09-18T08:17:25.062Z,3.10
2018-09-18T08:18:25.051Z,3.10
2018-09-18T08:19:25.164Z,3.30
2018-09-18T08:20:24.979Z,3.30
2018-09-18T08:21:24.952Z,3.00
2018-09-18T08:22:24.919Z,3.50
2018-09-18T08:23:24.914Z,2.90
2018-09-18T08:24:24.846Z,3.10
2018-09-18T08:25:24.828Z,2.90
2018-09-18T08:26:24.792Z,3.20
2018-09-18T08:27:24.785Z,3.10
2018-09-18T08:28:34.408Z,3.40
2018-09-18T08:29:24.694Z,3.00
2018-09-18T08:30:24.668Z,3.20
2018-09-18T08:31:24.647Z,3.20
2018-09-18T08:32:24.609Z,2.90
2018-09-18T08:33:24.592Z,3.20
2018-09-18T08:34:24.568Z,3.00
2018-09-18T08:35:35.916Z,3.20
2018-09-18T08:36:24.497Z,3.10
2018-09-18T08:37:24.461Z,3.10
2018-09-18T08:38:24.427Z,2.90
2018-09-18T08:39:24.404Z,3.20
2018-09-18T08:40:24.380Z,3.30
2018-09-18T08:41:24.350Z,3.10
2018-09-18T08:42:24.315Z,2.90
2018-09-18T08:43:24.283Z,2.90
2018-09-18T08:44:24.265Z,3.10
2018-09-18T08:45:24.215Z,3.20
2018-09-18T08:46:24.179Z,2.80
2018-09-18T08:47:24.158Z,2.90
2018-09-18T08:48:24.156Z,3.20
2018-09-18T08:49:24.092Z,3.00
2018-09-18T08:50:24.204Z,3.00
2018-09-18T08:51:24.062Z,3.00
2018-09-18T08:52:24.052Z,3.00
2018-09-18T08:53:23.994Z,3.10
2018-09-18T08:54:23.998Z,3.30
2018-09-18T08:55:23.922Z,3.10
2018-09-18T08:56:23.895Z,2.90
2018-09-18T08:57:23.853Z,2.90
2018-09-18T08:58:23.837Z,3.20
2018-09-18T08:59:23.823Z,3.20
2018-09-18T09:00:23.768Z,3.10
2018-09-18T09:01:23.757Z,3.30
2018-09-18T09:02:23.710Z,3.00
2018-09-18T09:03:23.755Z,3.10
2018-09-18T09:04:23.688Z,3.30
2018-09-18T09:05:23.651Z,3.00
2018-09-18T09:06:23.713Z,3.10
2018-09-18T09:07:23.604Z,3.00
2018-09-18T09:08:23.622Z,3.20
2018-09-18T09:09:23.675Z,3.20
2018-09-18T09:10:23.523Z,3.10
2018-09-18T09:11:23.458Z,2.90
2018-09-18T09:12:23.421Z,3.00
2018-09-18T09:13:23.412Z,2.90
2018-09-18T09:14:23.448Z,3.00
2018-09-18T09:15:23.325Z,3.00
2018-09-18T09:16:23.300Z,3.40
2018-09-18T09:17:23.301Z,3.30
2018-09-18T09:18:23.335Z,3.20
2018-09-18T09:19:23.315Z,3.10
2018-09-18T09:20:23.199Z,3.20
2018-09-18T09:21:23.255Z,3.10
2018-09-18T09:22:23.220Z,3.10
2018-09-18T09:23:33.503Z,3.20
2018-09-18T09:24:23.139Z,3.00
2018-09-18T09:25:23.070Z,3.10
2018-09-18T09:26:23.101Z,3.00
2018-09-18T09:27:22.985Z,3.10
2018-09-18T09:28:22.966Z,3.10
2018-09-18T09:29:22.945Z,3.00
2018-09-18T09:30:22.946Z,3.20
2018-09-18T09:31:22.906Z,2.90
2018-09-18T09:32:22.903Z,3.30
2018-09-18T09:33:22.818Z,3.20
2018-09-18T09:34:22.862Z,3.20
2018-09-18T09:35:22.811Z,3.30
2018-09-18T09:36:22.749Z,3.10
2018-09-18T09:37:22.707Z,3.10
2018-09-18T09:38:22.702Z,3.30
2018-09-18T09:39:22.663Z,3.00
2018-09-18T09:40:22.647Z,3.10
2018-09-18T09:41:22.605Z,3.00
2018-09-18T09:42:22.615Z,3.10
2018-09-18T09:43:22.547Z,3.00
2018-09-18T09:44:22.515Z,2.90
2018-09-18T09:45:22.525Z,3.40
2018-09-18T09:46:32.547Z,3.20
2018-09-18T09:47:22.505Z,3.30
2018-09-18T09:48:22.447Z,3.50
2018-09-18T09:49:22.390Z,3.30
2018-09-18T09:50:22.378Z,3.30
2018-09-18T09:51:22.448Z,3.00
2018-09-18T09:52:22.323Z,3.50
2018-09-18T09:53:22.282Z,3.40
2018-09-18T09:54:22.277Z,3.00
2018-09-18T09:55:22.242Z,3.30
2018-09-18T09:56:22.195Z,3.10
2018-09-18T09:57:22.170Z,3.40
2018-09-18T09:58:22.149Z,3.00
2018-09-18T09:59:22.112Z,3.20
2018-09-18T10:00:22.126Z,3.20
2018-09-18T10:01:22.070Z,3.00
2018-09-18T10:02:22.033Z,2.90
2018-09-18T10:03:22.010Z,3.10
2018-09-18T10:04:22.004Z,3.10
2018-09-18T10:05:21.958Z,3.10
2018-09-18T10:06:21.947Z,3.30
2018-09-18T10:07:21.943Z,3.10
2018-09-18T10:08:21.880Z,3.30
2018-09-18T10:09:21.841Z,3.30
2018-09-18T10:10:31.559Z,3.10
2018-09-18T10:11:21.783Z,3.20
2018-09-18T10:12:21.764Z,3.30
2018-09-18T10:13:21.759Z,3.50
2018-09-18T10:14:21.751Z,3.20
2018-09-18T10:15:21.694Z,3.30
2018-09-18T10:16:21.676Z,3.50
2018-09-18T10:17:21.638Z,3.10
2018-09-18T10:18:21.626Z,3.30
2018-09-18T10:19:21.585Z,3.20
2018-09-18T10:20:21.540Z,3.10
2018-09-18T10:21:21.550Z,3.00
2018-09-18T10:22:21.509Z,3.30
2018-09-18T10:23:21.502Z,3.30
2018-09-18T10:24:21.456Z,3.30
2018-09-18T10:25:21.441Z,3.30
2018-09-18T10:26:21.589Z,3.10
2018-09-18T10:27:21.364Z,3.40
2018-09-18T10:28:21.348Z,3.00
2018-09-18T10:29:21.320Z,3.30
2018-09-18T10:30:21.352Z,3.40
2018-09-18T10:31:21.256Z,3.50
2018-09-18T10:32:21.237Z,3.30
2018-09-18T10:33:21.318Z,3.20
2018-09-18T10:34:21.214Z,3.20
2018-09-18T10:35:21.200Z,3.50
2018-09-18T10:36:21.128Z,3.30
2018-09-18T10:37:21.118Z,3.20
2018-09-18T10:38:21.077Z,3.20
2018-09-18T10:39:21.104Z,3.30
2018-09-18T10:40:21.068Z,3.50
2018-09-18T10:41:21.066Z,3.30
2018-09-18T10:42:20.976Z,3.40
2018-09-18T10:43:20.958Z,3.40
2018-09-18T10:44:20.934Z,3.10
2018-09-18T10:45:20.920Z,3.30
2018-09-18T10:46:31.084Z,3.60
2018-09-18T10:47:20.840Z,3.20
2018-09-18T10:48:31.278Z,3.60
2018-09-18T10:49:31.255Z,3.60
2018-09-18T10:50:21.131Z,3.50
2018-09-18T10:51:20.740Z,3.50
2018-09-18T10:52:20.849Z,4.50
2018-09-18T10:53:20.705Z,3.70
2018-09-18T10:54:31.142Z,3.40
2018-09-18T10:55:20.657Z,4.50
2018-09-18T10:56:20.667Z,3.40
2018-09-18T10:57:31.666Z,3.30
2018-09-18T10:58:20.544Z,3.40
2018-09-18T10:59:20.518Z,3.30
2018-09-18T11:00:20.534Z,3.30
2018-09-18T11:01:20.493Z,3.40
2018-09-18T11:02:20.587Z,3.60
2018-09-18T11:03:20.445Z,3.30
2018-09-18T11:04:20.399Z,3.40
2018-09-18T11:05:20.387Z,3.30
2018-09-18T11:06:20.377Z,3.20
2018-09-18T11:07:20.396Z,3.50
2018-09-18T11:08:20.371Z,3.30
2018-09-18T11:09:20.342Z,3.50
2018-09-18T11:10:20.333Z,3.60
2018-09-18T11:11:20.243Z,3.60
2018-09-18T11:12:20.199Z,3.30
2018-09-18T11:13:20.223Z,3.60
2018-09-18T11:14:20.239Z,3.40
2018-09-18T11:15:20.156Z,3.40
2018-09-18T11:16:31.913Z,3.30
2018-09-18T11:17:30.364Z,3.40
2018-09-18T11:18:20.034Z,3.50
2018-09-18T11:19:20.043Z,3.40
2018-09-18T11:20:20.059Z,3.50
2018-09-18T11:21:32.409Z,3.40
2018-09-18T11:22:20.123Z,3.50
2018-09-18T11:23:19.930Z,3.90
2018-09-18T11:24:19.947Z,3.50
2018-09-18T11:25:19.898Z,3.50
2018-09-18T11:26:19.877Z,3.60
2018-09-18T11:27:19.784Z,3.70
2018-09-18T11:28:19.760Z,3.60
2018-09-18T11:29:19.760Z,3.60
2018-09-18T11:30:19.713Z,3.80
2018-09-18T11:31:19.772Z,3.90
2018-09-18T11:32:19.657Z,3.90
2018-09-18T11:33:19.638Z,3.70
2018-09-18T11:34:19.634Z,3.60
2018-09-18T11:35:19.588Z,3.60
2018-09-18T11:36:19.569Z,3.60
2018-09-18T11:37:19.529Z,3.50
2018-09-18T11:38:19.505Z,3.40
2018-09-18T11:39:19.501Z,3.60
2018-09-18T11:40:19.451Z,3.70
2018-09-18T11:41:19.431Z,3.50
2018-09-18T11:42:19.413Z,3.50
2018-09-18T11:43:19.390Z,3.30
2018-09-18T11:44:19.385Z,3.20
2018-09-18T11:45:19.346Z,3.00
2018-09-18T11:46:19.307Z,2.80
2018-09-18T11:47:19.303Z,2.70
2018-09-18T11:48:19.261Z,2.70
2018-09-18T11:49:19.256Z,2.70
2018-09-18T11:50:19.220Z,2.40
2018-09-18T11:51:19.193Z,2.50
2018-09-18T11:52:19.155Z,2.70
2018-09-18T11:53:19.141Z,2.70
2018-09-18T11:54:19.139Z,2.50
2018-09-18T11:55:19.090Z,2.50
2018-09-18T11:56:19.063Z,2.60
2018-09-18T11:57:19.035Z,2.50
2018-09-18T11:58:19.054Z,2.70
2018-09-18T11:59:19.380Z,2.60
2018-09-18T12:00:18.980Z,2.50
2018-09-18T12:01:18.939Z,2.70
2018-09-18T12:02:18.911Z,2.70
2018-09-18T12:03:18.978Z,2.70
2018-09-18T12:04:18.866Z,2.50
2018-09-18T12:05:18.837Z,2.40
2018-09-18T12:06:18.822Z,2.40
2018-09-18T12:07:18.796Z,2.50
2018-09-18T12:08:18.797Z,2.40
2018-09-18T12:09:19.690Z,2.40
2018-09-18T12:10:18.705Z,2.50
2018-09-18T12:11:18.730Z,2.40
2018-09-18T12:12:18.661Z,2.60
2018-09-18T12:13:18.653Z,2.30
2018-09-18T12:14:18.685Z,2.70
2018-09-18T12:15:18.841Z,2.60
2018-09-18T12:16:18.838Z,2.30
2018-09-18T12:17:18.561Z,2.70
2018-09-18T12:18:18.530Z,2.50
2018-09-18T12:19:18.497Z,2.50
2018-09-18T12:20:18.515Z,2.40
2018-09-18T12:21:18.458Z,2.70
2018-09-18T12:22:18.430Z,2.60
2018-09-18T12:23:18.416Z,2.60
2018-09-18T12:24:18.392Z,2.50
2018-09-18T12:25:18.326Z,2.80
2018-09-18T12:26:18.301Z,2.80
2018-09-18T12:27:18.283Z,2.60
2018-09-18T12:28:18.272Z,2.60
2018-09-18T12:29:18.227Z,2.80
2018-09-18T12:30:18.190Z,2.80
2018-09-18T12:31:18.172Z,2.60
2018-09-18T12:32:18.138Z,2.80
2018-09-18T12:33:18.127Z,2.50
2018-09-18T12:34:18.121Z,2.60
2018-09-18T12:35:18.134Z,2.90
2018-09-18T12:36:18.040Z,2.50
2018-09-18T12:37:18.036Z,2.90
2018-09-18T12:38:18.000Z,2.70
2018-09-18T12:39:17.989Z,2.70
2018-09-18T12:40:17.946Z,2.60
2018-09-18T12:41:17.930Z,3.00
2018-09-18T12:42:17.950Z,2.80
2018-09-18T12:43:17.866Z,2.50
2018-09-18T12:44:17.887Z,2.70
2018-09-18T12:45:17.819Z,2.50
2018-09-18T12:46:17.790Z,2.80
2018-09-18T12:47:17.766Z,2.90
2018-09-18T12:48:17.736Z,2.90
2018-09-18T12:49:17.747Z,2.30
2018-09-18T12:50:17.813Z,2.30
2018-09-18T12:51:17.697Z,2.50
2018-09-18T12:52:17.637Z,2.40
2018-09-18T12:53:17.603Z,2.60
2018-09-18T12:54:17.646Z,2.70
2018-09-18T12:55:17.556Z,2.50
2018-09-18T12:56:17.525Z,2.40
2018-09-18T12:57:17.643Z,2.30
2018-09-18T12:58:17.512Z,2.00
2018-09-18T12:59:17.543Z,2.00
2018-09-18T13:00:17.522Z,2.10
2018-09-18T13:01:17.409Z,2.30
2018-09-18T13:02:17.419Z,2.10
2018-09-18T13:03:17.351Z,1.90
2018-09-18T13:04:17.317Z,2.10
2018-09-18T13:05:17.351Z,2.00
2018-09-18T13:06:17.385Z,1.90
2018-09-18T13:07:17.252Z,2.00
2018-09-18T13:08:17.217Z,2.00
2018-09-18T13:09:17.202Z,1.90
2018-09-18T13:10:17.160Z,2.00
2018-09-18T13:11:17.153Z,1.90
2018-09-18T13:12:17.104Z,2.20
2018-09-18T13:13:17.086Z,2.10
2018-09-18T13:14:17.193Z,2.20
2018-09-18T13:15:17.043Z,2.00
2018-09-18T13:16:17.007Z,2.10
2018-09-18T13:17:16.979Z,2.30
2018-09-18T13:18:16.928Z,2.00